Time;durP1;ratioP1;P1;durP2;ratioP2;P2;SDS_P1;SDS_P2;PMS_P1;PMS_P2;Temp;Humidity;BMP_temperature;BMP_pressure;BME280_temperature;BME280_humidity;BME280_pressure;Samples;Min_cycle;Max_cycle;Signal;HPM_P1;HPM_P2
2022/05/31 00:02:07;;;;;;;4.60;2.42;;;;;;;8.42;100.00;101510.69;5027690;28;20033;-73
2022/05/31 00:04:33;;;;;;;3.00;2.20;;;;;;;8.40;100.00;101510.72;4995572;28;20056;-73
2022/05/31 00:06:59;;;;;;;3.05;2.45;;;;;;;8.39;100.00;101502.84;5012336;28;20124;-73
2022/05/31 00:09:25;;;;;;;3.03;2.20;;;;;;;8.36;100.00;101501.16;5001322;28;20411;-73
2022/05/31 00:11:51;;;;;;;3.25;1.95;;;;;;;8.37;100.00;101504.66;5020995;28;20029;-73
2022/05/31 00:14:17;;;;;;;3.85;2.38;;;;;;;8.36;100.00;101505.56;5030518;28;20048;-73
2022/05/31 00:16:45;;;;;;;3.17;2.50;;;;;;;8.36;100.00;101501.16;5029625;28;20033;-73
2022/05/31 00:19:12;;;;;;;2.75;2.40;;;;;;;8.37;100.00;101499.38;5011145;28;20036;-73
2022/05/31 00:21:51;;;;;;;2.65;2.17;;;;;;;8.37;100.00;101500.25;5030671;28;20633;-73
2022/05/31 00:24:18;;;;;;;2.63;2.33;;;;;;;8.38;100.00;101501.97;4996348;28;20506;-73
2022/05/31 00:26:44;;;;;;;4.43;2.20;;;;;;;8.36;100.00;101501.16;5028688;28;20032;-74
2022/05/31 00:29:11;;;;;;;5.38;2.13;;;;;;;8.34;100.00;101494.19;5010928;28;20475;-73
2022/05/31 00:31:40;;;;;;;2.53;2.30;;;;;;;8.33;100.00;101497.72;5020968;28;20511;-73
2022/05/31 00:34:07;;;;;;;2.63;2.25;;;;;;;8.31;100.00;101497.75;4995084;28;20391;-72
2022/05/31 00:36:33;;;;;;;3.53;2.40;;;;;;;8.29;100.00;101495.16;5004639;28;20498;-73
2022/05/31 00:38:59;;;;;;;2.15;1.90;;;;;;;8.29;100.00;101495.16;5010588;28;20029;-72
2022/05/31 00:41:25;;;;;;;5.00;2.50;;;;;;;8.27;100.00;101489.06;5030474;28;20048;-72
2022/05/31 00:43:59;;;;;;;3.08;2.03;;;;;;;8.27;100.00;101489.06;5024481;28;20037;-72
2022/05/31 00:46:28;;;;;;;2.70;2.38;;;;;;;8.24;100.00;101496.19;5007084;28;20040;-72
2022/05/31 00:49:00;;;;;;;3.00;2.30;;;;;;;8.21;100.00;101489.22;5027904;28;20454;-73
2022/05/31 00:51:37;;;;;;;2.90;2.28;;;;;;;8.21;100.00;101481.28;5025498;28;20063;-73
2022/05/31 00:54:04;;;;;;;3.00;2.47;;;;;;;8.21;100.00;101483.06;5012005;28;20075;-73
2022/05/31 00:56:30;;;;;;;3.22;2.33;;;;;;;8.20;100.00;101482.22;5011795;28;20028;-73
2022/05/31 00:59:06;;;;;;;4.68;2.55;;;;;;;8.21;100.00;101489.22;5012919;28;20017;-73
2022/05/31 01:01:38;;;;;;;2.90;2.25;;;;;;;8.21;100.00;101483.94;5031811;28;20033;-73
2022/05/31 01:04:05;;;;;;;2.77;2.47;;;;;;;8.21;100.00;101483.06;5007288;28;20132;-72
2022/05/31 01:06:32;;;;;;;2.28;2.08;;;;;;;8.20;100.00;101479.56;5032305;28;20315;-73
2022/05/31 01:08:59;;;;;;;7.22;2.33;;;;;;;8.20;100.00;101484.84;5030134;28;20488;-72
2022/05/31 01:11:35;;;;;;;4.68;2.50;;;;;;;8.19;100.00;101484.88;5030116;28;20086;-72
2022/05/31 01:14:00;;;;;;;3.25;2.47;;;;;;;8.18;100.00;101477.88;5002735;28;20029;-72
2022/05/31 01:16:26;;;;;;;3.28;2.22;;;;;;;8.17;100.00;101490.19;5027575;28;20442;-72
2022/05/31 01:18:51;;;;;;;3.30;2.30;;;;;;;8.16;100.00;101483.19;5031146;28;20131;-72
2022/05/31 01:21:17;;;;;;;2.75;2.25;;;;;;;8.15;100.00;101486.72;5029595;28;20439;-73
2022/05/31 01:23:48;;;;;;;3.05;2.38;;;;;;;8.16;100.00;101483.19;5031000;28;20033;-73
2022/05/31 01:26:41;;;;;;;2.33;2.13;;;;;;;8.14;100.00;101482.34;5028121;28;20041;-73
2022/05/31 01:29:22;;;;;;;2.55;2.30;;;;;;;8.12;100.00;101490.31;5028437;28;20387;-74
2022/05/31 01:31:52;;;;;;;2.63;2.00;;;;;;;8.11;100.00;101485.94;5028843;28;20450;-73
2022/05/31 01:34:23;;;;;;;3.28;2.40;;;;;;;8.13;100.00;101491.19;5013919;28;20387;-73
2022/05/31 01:36:51;;;;;;;3.08;2.15;;;;;;;8.09;100.00;101485.13;5011788;28;20090;-73
2022/05/31 01:39:20;;;;;;;4.65;2.40;;;;;;;8.08;100.00;101482.50;5015446;28;20075;-73
2022/05/31 01:42:33;;;;;;;4.15;2.10;;;;;;;8.10;100.00;101485.97;5030292;28;20037;-73
2022/05/31 01:45:03;;;;;;;4.30;2.60;;;;;;;8.11;100.00;101495.59;4980589;28;20110;-72
2022/05/31 01:47:29;;;;;;;3.78;2.47;;;;;;;8.10;100.00;101480.69;5030737;28;20045;-72
2022/05/31 01:49:55;;;;;;;4.32;2.15;;;;;;;8.10;100.00;101481.56;5005794;28;20037;-72
2022/05/31 01:52:22;;;;;;;2.55;2.33;;;;;;;8.08;100.00;101482.50;5030691;28;20480;-72
2022/05/31 01:54:48;;;;;;;2.22;2.03;;;;;;;8.07;100.00;101486.91;5011199;28;20051;-72
2022/05/31 01:57:15;;;;;;;2.88;2.22;;;;;;;8.06;100.00;101471.13;5019030;28;20029;-73
2022/05/31 01:59:44;;;;;;;3.17;2.35;;;;;;;8.05;100.00;101483.44;5014432;28;20155;-72
2022/05/31 02:02:10;;;;;;;2.83;1.98;;;;;;;8.05;100.00;101472.06;5011524;28;20037;-72
2022/05/31 02:04:35;;;;;;;3.15;2.22;;;;;;;8.06;100.00;101473.78;5012114;28;20653;-72
2022/05/31 02:07:15;;;;;;;2.90;2.30;;;;;;;8.05;100.00;101472.06;5027608;28;20025;-72
2022/05/31 02:09:42;;;;;;;2.90;2.40;;;;;;;8.02;100.00;101479.09;5011723;28;20052;-72
2022/05/31 02:12:09;;;;;;;3.35;2.47;;;;;;;8.04;100.00;101479.09;5011080;28;20547;-72
2022/05/31 02:14:36;;;;;;;3.10;2.40;;;;;;;8.04;100.00;101467.66;5010150;28;20555;-72
2022/05/31 02:17:02;;;;;;;3.17;2.40;;;;;;;8.04;100.00;101473.81;5028791;28;20047;-72
2022/05/31 02:19:28;;;;;;;3.13;2.25;;;;;;;8.05;100.00;101472.06;4999430;28;20108;-73
2022/05/31 02:22:02;;;;;;;2.80;2.33;;;;;;;8.05;100.00;101469.41;5011684;28;20526;-72
2022/05/31 02:24:28;;;;;;;4.47;2.17;;;;;;;8.05;100.00;101466.78;5030671;28;20032;-72
2022/05/31 02:26:56;;;;;;;3.67;2.60;;;;;;;8.08;100.00;101471.97;5009887;28;20033;-72
2022/05/31 02:29:28;;;;;;;2.88;2.47;;;;;;;8.07;100.00;101472.88;5009765;28;20122;-72
2022/05/31 02:31:55;;;;;;;2.65;2.15;;;;;;;8.08;100.00;101472.84;5010928;28;20927;-72
2022/05/31 02:34:23;;;;;;;2.60;2.22;;;;;;;8.09;100.00;101471.03;5020835;28;20029;-73
2022/05/31 02:36:50;;;;;;;4.32;2.95;;;;;;;8.10;100.00;101462.22;4993609;28;20400;-72
2022/05/31 02:39:16;;;;;;;3.17;2.38;;;;;;;8.11;100.00;101467.47;4993505;28;20032;-72
2022/05/31 02:41:42;;;;;;;2.80;2.17;;;;;;;8.11;100.00;101469.22;5032179;28;20029;-72
2022/05/31 02:44:08;;;;;;;2.75;2.42;;;;;;;8.11;100.00;101466.59;5026198;28;20037;-72
2022/05/31 02:46:34;;;;;;;2.70;2.30;;;;;;;8.12;100.00;101465.72;5010263;28;20543;-73
2022/05/31 02:49:00;;;;;;;2.22;2.00;;;;;;;8.10;100.00;101464.88;5025293;28;20040;-72
2022/05/31 02:51:26;;;;;;;3.90;2.22;;;;;;;8.09;100.00;101460.50;5029849;28;20029;-72
2022/05/31 02:53:52;;;;;;;3.08;2.38;;;;;;;8.08;100.00;101464.03;5030108;28;20078;-72
2022/05/31 02:56:17;;;;;;;2.30;2.10;;;;;;;8.07;100.00;101462.31;5025439;28;20037;-72
2022/05/31 02:58:44;;;;;;;2.40;2.15;;;;;;;8.07;100.00;101459.69;5030148;28;21830;-72
2022/05/31 03:01:22;;;;;;;2.65;2.22;;;;;;;8.09;100.00;101453.47;5029384;28;20037;-73
2022/05/31 03:03:47;;;;;;;3.67;2.10;;;;;;;8.09;100.00;101453.47;5029713;28;20605;-73
2022/05/31 03:06:13;;;;;;;2.95;2.25;;;;;;;8.10;100.00;101454.31;5027861;28;20057;-73
2022/05/31 03:08:38;;;;;;;2.42;2.20;;;;;;;8.10;100.00;101455.19;5031034;28;20119;-73
2022/05/31 03:11:08;;;;;;;3.30;2.30;;;;;;;8.10;100.00;101455.19;5013638;28;20116;-73
2022/05/31 03:13:34;;;;;;;5.22;2.35;;;;;;;8.10;100.00;101452.56;5024574;28;20167;-73
2022/05/31 03:16:02;;;;;;;4.13;2.30;;;;;;;8.09;100.00;101450.84;5025189;28;20066;-73
2022/05/31 03:18:33;;;;;;;3.83;2.15;;;;;;;8.10;100.00;101447.28;5007239;28;20092;-73
2022/05/31 03:21:04;;;;;;;6.72;2.72;;;;;;;8.10;100.00;101449.03;5005939;28;20443;-73
2022/05/31 03:23:33;;;;;;;2.65;2.33;;;;;;;8.11;100.00;101446.38;5009372;28;20064;-73
2022/05/31 03:26:01;;;;;;;3.22;2.35;;;;;;;8.13;100.00;101447.19;5007501;28;20384;-74
2022/05/31 03:28:27;;;;;;;2.92;2.30;;;;;;;8.14;100.00;101446.31;5025238;28;20135;-73
2022/05/31 03:30:53;;;;;;;2.42;2.05;;;;;;;8.14;100.00;101445.44;5006154;28;20556;-73
2022/05/31 03:33:19;;;;;;;2.58;2.38;;;;;;;8.17;100.00;101439.22;5010448;28;20037;-73
2022/05/31 03:35:45;;;;;;;3.05;2.30;;;;;;;8.19;100.00;101437.41;5008689;28;20388;-74
2022/05/31 03:38:10;;;;;;;3.72;2.25;;;;;;;8.20;100.00;101439.13;5007309;28;20040;-73
2022/05/31 03:43:20;;;;;;;2.35;2.10;;;;;;;8.20;100.00;101440.00;5010611;28;20033;-74
2022/05/31 03:45:46;;;;;;;2.55;2.20;;;;;;;8.21;100.00;101447.00;5008748;28;20728;-73
2022/05/31 03:48:12;;;;;;;5.55;2.33;;;;;;;8.22;100.00;101437.34;5022949;28;20732;-73
2022/05/31 03:50:38;;;;;;;2.63;2.20;;;;;;;8.20;100.00;101434.72;5016611;28;20694;-73
2022/05/31 03:53:11;;;;;;;3.28;2.35;;;;;;;8.22;100.00;101437.34;5023586;28;20557;-73
2022/05/31 03:55:42;;;;;;;2.50;2.05;;;;;;;8.20;100.00;101429.44;5004221;28;20037;-73
2022/05/31 03:58:07;;;;;;;3.05;2.08;;;;;;;8.21;100.00;101441.72;5010211;28;20091;-74
2022/05/31 04:00:33;;;;;;;3.28;2.60;;;;;;;8.23;100.00;101432.00;5022297;28;20029;-73
2022/05/31 04:02:59;;;;;;;4.78;2.47;;;;;;;8.24;100.00;101444.28;5008037;28;20365;-74
2022/05/31 04:05:25;;;;;;;2.60;2.22;;;;;;;8.23;100.00;101442.53;5011393;28;20037;-73
2022/05/31 04:07:55;;;;;;;2.83;2.30;;;;;;;8.22;100.00;101432.91;5016359;28;20591;-73
2022/05/31 04:10:21;;;;;;;2.58;2.30;;;;;;;8.22;100.00;101435.53;5009388;28;20033;-73
2022/05/31 04:12:46;;;;;;;3.05;2.28;;;;;;;8.22;100.00;101443.47;5005665;28;20103;-73
2022/05/31 04:15:12;;;;;;;2.90;2.35;;;;;;;8.22;100.00;101440.81;5023015;28;20116;-74
2022/05/31 04:17:38;;;;;;;5.05;2.60;;;;;;;8.21;100.00;101439.09;5014766;28;20034;-74
2022/05/31 04:20:03;;;;;;;3.28;2.67;;;;;;;8.21;100.00;101436.44;5006788;28;22860;-74
2022/05/31 04:22:31;;;;;;;3.25;2.38;;;;;;;8.22;100.00;101434.69;5027781;28;20048;-73
2022/05/31 04:25:01;;;;;;;5.78;2.53;;;;;;;8.23;100.00;101437.28;5012769;28;20554;-74
2022/05/31 04:27:27;;;;;;;3.17;2.47;;;;;;;8.25;100.00;101438.13;5029254;28;20159;-74
2022/05/31 04:29:52;;;;;;;2.70;2.20;;;;;;;8.25;100.00;101430.19;5025613;28;20040;-74
2022/05/31 04:32:18;;;;;;;3.60;2.78;;;;;;;8.29;100.00;101428.34;5013450;28;20047;-73
2022/05/31 04:34:43;;;;;;;3.58;2.80;;;;;;;8.29;100.00;101431.84;5015811;28;20028;-73
2022/05/31 04:37:10;;;;;;;3.42;2.50;;;;;;;8.32;100.00;101427.41;5015004;28;20033;-74
2022/05/31 04:39:36;;;;;;;2.92;2.47;;;;;;;8.35;100.00;101432.59;5013732;28;20399;-73
2022/05/31 04:42:02;;;;;;;3.53;2.75;;;;;;;8.38;100.00;101432.50;5016339;28;20035;-73
2022/05/31 04:44:27;;;;;;;3.78;2.83;;;;;;;8.42;100.00;101436.78;4972903;28;20911;-74
2022/05/31 04:46:54;;;;;;;3.20;2.17;;;;;;;8.44;100.00;101432.31;5030232;28;21711;-74
2022/05/31 04:49:20;;;;;;;2.67;2.47;;;;;;;8.47;100.00;101426.97;5013615;28;20047;-73
2022/05/31 04:51:46;;;;;;;2.47;2.25;;;;;;;8.52;100.00;101433.03;5029390;28;20075;-73
2022/05/31 04:54:11;;;;;;;4.07;2.40;;;;;;;8.53;100.00;101424.22;5031895;28;20238;-73
2022/05/31 04:56:38;;;;;;;4.10;2.10;;;;;;;8.58;100.00;101429.34;5014575;28;20104;-73
2022/05/31 04:59:04;;;;;;;3.03;2.25;;;;;;;8.61;100.00;101428.41;5013891;28;20934;-73
2022/05/31 05:01:29;;;;;;;2.97;2.40;;;;;;;8.62;100.00;101430.13;5030854;28;20037;-73
2022/05/31 05:03:55;;;;;;;3.35;2.35;;;;;;;8.66;100.00;101427.38;5031565;28;20037;-73
2022/05/31 05:06:22;;;;;;;3.80;2.55;;;;;;;8.69;100.00;101432.56;5029767;28;20115;-73
2022/05/31 05:08:48;;;;;;;2.72;2.10;;;;;;;8.70;100.00;101433.41;5007765;28;20419;-74
2022/05/31 05:11:15;;;;;;;3.55;2.60;;;;;;;8.72;100.00;101428.94;5032313;28;20036;-73
2022/05/31 05:13:41;;;;;;;2.97;2.42;;;;;;;8.74;100.00;101429.78;5033422;28;20032;-73
2022/05/31 05:16:08;;;;;;;2.45;2.10;;;;;;;8.74;100.00;101421.88;5030524;28;20612;-73
2022/05/31 05:18:34;;;;;;;3.08;2.45;;;;;;;8.77;100.00;101429.69;5030656;28;20029;-73
2022/05/31 05:21:02;;;;;;;3.22;2.03;;;;;;;8.80;100.00;101426.97;5016211;28;20049;-74
2022/05/31 05:23:27;;;;;;;2.92;2.60;;;;;;;8.81;100.00;101430.47;5016286;28;20475;-73
2022/05/31 05:25:54;;;;;;;3.33;2.60;;;;;;;8.81;100.00;101431.34;5032849;28;20035;-73
2022/05/31 05:31:05;;;;;;;3.20;2.90;;;;;;;8.85;100.00;101431.25;5019109;28;20029;-73
2022/05/31 05:33:31;;;;;;;2.75;2.30;;;;;;;8.86;100.00;101427.69;5034552;28;20056;-73
2022/05/31 05:35:57;;;;;;;4.40;2.88;;;;;;;8.86;100.00;101427.69;5034256;28;20518;-74
2022/05/31 05:38:23;;;;;;;3.55;2.60;;;;;;;8.88;100.00;101433.81;5033095;28;20033;-73
2022/05/31 05:40:49;;;;;;;2.95;2.63;;;;;;;8.88;100.00;101421.47;5034549;28;20124;-74
2022/05/31 05:43:14;;;;;;;3.03;2.47;;;;;;;8.91;100.00;101428.44;5034671;28;20175;-73
2022/05/31 05:45:40;;;;;;;3.70;2.53;;;;;;;8.92;100.00;101432.81;5015857;28;20029;-74
2022/05/31 05:48:06;;;;;;;2.78;2.45;;;;;;;8.93;100.00;101432.75;5034504;28;20126;-73
2022/05/31 05:50:36;;;;;;;3.47;2.80;;;;;;;8.97;100.00;101430.91;5016031;28;20037;-73
2022/05/31 05:53:05;;;;;;;3.00;2.63;;;;;;;8.98;100.00;101429.97;5015945;28;20021;-73
2022/05/31 05:55:30;;;;;;;4.13;2.90;;;;;;;8.99;100.00;101425.59;5033969;28;20602;-73
2022/05/31 05:57:56;;;;;;;3.67;2.65;;;;;;;9.02;100.00;101423.72;5015730;28;20037;-74
2022/05/31 06:00:22;;;;;;;3.40;2.60;;;;;;;9.05;100.00;101428.03;5032258;28;20037;-74
2022/05/31 06:02:54;;;;;;;2.95;2.60;;;;;;;9.10;100.00;101420.84;5029913;28;20052;-74
2022/05/31 06:05:24;;;;;;;3.78;3.05;;;;;;;9.15;100.00;101431.28;5033522;28;20045;-74
2022/05/31 06:07:56;;;;;;;3.20;2.90;;;;;;;9.21;100.00;101421.38;5023959;28;20037;-73
2022/05/31 06:10:48;;;;;;;4.00;2.78;;;;;;;9.26;100.00;101421.22;5032624;28;20035;-73
2022/05/31 06:13:21;;;;;;;4.10;2.40;;;;;;;9.31;100.00;101427.25;5027867;28;20126;-73
2022/05/31 06:15:50;;;;;;;;;;;;;;;9.36;100.00;101424.44;5024790;28;20051;-74
2022/05/31 06:18:19;;;;;;;4.25;2.92;;;;;;;9.42;100.00;101423.41;5031002;28;19974;-74
2022/05/31 06:20:47;;;;;;;3.05;2.38;;;;;;;9.47;100.00;101429.41;5010512;28;20411;-74
2022/05/31 06:23:13;;;;;;;6.05;2.63;;;;;;;9.54;100.00;101425.69;5023459;28;20041;-73
2022/05/31 06:25:39;;;;;;;4.10;2.95;;;;;;;9.60;100.00;101429.91;5030020;28;20035;-74
2022/05/31 06:28:04;;;;;;;4.35;2.33;;;;;;;9.65;100.00;101428.81;5029670;28;20032;-74
2022/05/31 06:30:30;;;;;;;2.92;2.40;;;;;;;9.72;100.00;101426.84;5012873;28;20025;-73
2022/05/31 06:32:56;;;;;;;4.07;2.72;;;;;;;9.80;100.00;101426.59;5032904;28;20020;-74
2022/05/31 06:35:21;;;;;;;3.00;2.50;;;;;;;9.87;100.00;101422.81;5028473;28;20529;-74
2022/05/31 06:37:47;;;;;;;2.38;2.17;;;;;;;9.92;100.00;101420.91;5031859;28;21861;-74
2022/05/31 06:40:12;;;;;;;3.97;2.92;;;;;;;9.99;100.00;101425.97;5025338;28;20035;-73
2022/05/31 06:42:38;;;;;;;3.28;2.70;;;;;;;10.04;100.00;101422.25;5027347;28;20679;-72
2022/05/31 06:45:04;;;;;;;2.65;2.40;;;;;;;10.11;100.00;101435.28;5009824;28;20090;-78
2022/05/31 06:47:29;;;;;;;4.00;2.90;;;;;;;10.17;100.00;101424.50;5013251;28;20086;-78
2022/05/31 06:49:55;;;;;;;4.43;2.90;;;;;;;10.23;100.00;101434.00;5031360;28;20486;-79
2022/05/31 06:57:49;;;;;;;2.92;2.60;;;;;;;10.68;100.00;101430.66;5025399;28;20563;-76
2022/05/31 07:00:18;;;;;;;4.18;2.65;;;;;;;10.94;100.00;101430.59;5031485;28;20075;-76
2022/05/31 07:02:44;;;;;;;5.88;2.75;;;;;;;11.22;100.00;101427.78;5013603;28;20048;-76
2022/05/31 07:05:11;;;;;;;3.78;2.78;;;;;;;11.48;100.00;101425.00;5031772;28;20036;-77
2022/05/31 07:07:37;;;;;;;4.38;2.97;;;;;;;11.70;100.00;101424.16;5004866;28;20495;-76
2022/05/31 07:10:03;;;;;;;3.33;2.75;;;;;;;11.97;100.00;101416.00;5031181;28;20053;-76
2022/05/31 07:12:29;;;;;;;4.05;2.95;;;;;;;12.15;99.25;101415.22;5028364;28;20136;-76
2022/05/31 07:14:55;;;;;;;4.47;2.60;;;;;;;12.28;98.34;101414.69;5013085;28;20036;-78
2022/05/31 07:17:21;;;;;;;2.63;2.38;;;;;;;12.33;96.88;101410.06;5029363;28;20174;-77
2022/05/31 07:19:46;;;;;;;3.10;2.33;;;;;;;12.39;96.95;101408.91;5013243;28;20380;-77
2022/05/31 07:22:11;;;;;;;3.80;2.50;;;;;;;12.51;96.24;101408.38;5012002;28;20124;-77
2022/05/31 07:24:37;;;;;;;3.72;2.30;;;;;;;12.60;95.43;101407.94;5031174;28;20043;-76
2022/05/31 07:27:03;;;;;;;4.38;2.30;;;;;;;12.69;93.49;101408.50;5032205;28;20124;-77
2022/05/31 07:29:28;;;;;;;3.88;2.63;;;;;;;12.77;93.55;101403.69;5031091;28;20029;-76
2022/05/31 07:31:54;;;;;;;3.75;2.50;;;;;;;12.96;93.26;101402.84;5030282;28;20403;-76
2022/05/31 07:34:23;;;;;;;3.72;2.28;;;;;;;13.23;93.04;101402.47;5030002;28;20029;-72
2022/05/31 07:36:49;;;;;;;3.33;2.50;;;;;;;13.50;92.66;101394.13;5027537;28;20519;-77
2022/05/31 07:39:16;;;;;;;4.13;2.40;;;;;;;13.76;91.94;101399.94;4997023;28;20032;-76
2022/05/31 07:41:42;;;;;;;3.40;2.10;;;;;;;14.01;90.66;101388.03;5004152;28;20041;-76
2022/05/31 07:44:09;;;;;;;3.35;2.35;;;;;;;14.32;90.08;101389.13;5028167;28;20043;-77
2022/05/31 07:46:35;;;;;;;2.83;2.25;;;;;;;14.65;89.70;101391.78;5010617;28;20041;-77
2022/05/31 07:49:00;;;;;;;3.38;2.40;;;;;;;14.82;87.75;101384.69;5003883;28;20044;-75
2022/05/31 07:51:27;;;;;;;4.05;2.30;;;;;;;15.02;86.13;101385.38;5029770;28;20387;-75
2022/05/31 07:53:52;;;;;;;4.25;2.35;;;;;;;15.21;85.67;101380.75;5013687;28;20391;-75
2022/05/31 07:56:18;;;;;;;2.70;2.08;;;;;;;15.38;85.19;101384.28;5004763;28;20029;-75
2022/05/31 07:58:46;;;;;;;3.70;2.55;;;;;;;15.50;81.80;101371.16;5029395;28;20033;-75
2022/05/31 08:01:14;;;;;;;5.10;2.38;;;;;;;15.58;81.16;101375.09;5029424;28;20556;-76
2022/05/31 08:03:43;;;;;;;2.47;2.20;;;;;;;15.68;81.35;101377.25;5031042;28;20342;-76
2022/05/31 08:06:14;;;;;;;2.22;2.03;;;;;;;15.77;80.13;101373.16;4987193;28;20044;-75
2022/05/31 08:08:40;;;;;;;4.07;2.33;;;;;;;15.82;79.94;101373.75;5032960;28;20468;-76
2022/05/31 08:11:08;;;;;;;2.97;2.45;;;;;;;15.90;79.54;101371.47;5032787;28;20029;-72
2022/05/31 08:13:34;;;;;;;3.05;2.40;;;;;;;16.08;78.44;101380.22;5035732;28;20041;-72
2022/05/31 08:16:00;;;;;;;3.42;2.30;;;;;;;16.23;77.08;101374.94;5029536;28;20043;-72
2022/05/31 08:18:26;;;;;;;3.28;2.15;;;;;;;16.32;77.87;101373.47;5027793;28;20432;-73
2022/05/31 08:20:58;;;;;;;2.90;2.58;;;;;;;16.36;76.88;101378.56;5013928;28;20053;-73
2022/05/31 08:23:24;;;;;;;4.10;2.70;;;;;;;16.40;76.67;101369.41;5013147;28;20072;-73
2022/05/31 08:25:49;;;;;;;4.60;2.50;;;;;;;16.57;77.34;101367.50;4996558;28;20029;-73
2022/05/31 08:28:15;;;;;;;3.97;2.40;;;;;;;16.61;76.01;101365.50;5006972;28;20048;-79
2022/05/31 08:30:40;;;;;;;2.80;2.28;;;;;;;16.67;76.42;101368.63;5010307;28;20029;-78
2022/05/31 08:33:06;;;;;;;3.38;2.60;;;;;;;16.87;75.96;101369.19;4992925;28;20061;-79
2022/05/31 08:35:32;;;;;;;3.13;2.80;;;;;;;16.94;73.95;101370.50;4994408;28;20152;-79
2022/05/31 08:37:57;;;;;;;2.72;2.47;;;;;;;17.04;72.16;101369.94;5001679;28;20037;-74
2022/05/31 08:40:23;;;;;;;3.58;2.65;;;;;;;17.10;72.69;101369.53;5027533;28;20037;-74
2022/05/31 08:42:49;;;;;;;2.85;2.35;;;;;;;17.17;73.38;101370.84;5010699;28;20400;-74
2022/05/31 08:45:40;;;;;;;5.95;3.17;;;;;;;17.06;68.65;101373.38;5012250;28;20033;-74
2022/05/31 08:48:25;;;;;;;5.35;3.13;;;;;;;16.91;68.86;101364.50;4994506;28;20064;-74
2022/05/31 08:56:56;;;;;;;3.78;2.65;;;;;;;17.13;70.96;101365.81;5025003;28;20505;-74
2022/05/31 08:59:36;;;;;;;3.38;2.90;;;;;;;17.28;67.20;101367.50;5022590;28;20040;-74
2022/05/31 09:02:15;;;;;;;4.32;2.85;;;;;;;17.37;69.04;101366.00;4993435;28;20029;-74
2022/05/31 09:04:44;;;;;;;4.43;2.97;;;;;;;17.39;68.54;101366.78;4995361;28;20361;-74
2022/05/31 09:07:17;;;;;;;4.15;3.10;;;;;;;17.44;66.83;101359.28;5006795;28;20033;-75
2022/05/31 09:09:53;;;;;;;3.58;3.03;;;;;;;17.47;66.97;101363.56;5010998;28;20029;-74
2022/05/31 09:12:31;;;;;;;4.07;3.13;;;;;;;17.58;66.22;101350.34;5012624;28;20039;-76
2022/05/31 09:15:23;;;;;;;5.18;3.45;;;;;;;17.73;66.31;101353.81;5021131;28;20106;-76
2022/05/31 09:18:03;;;;;;;4.25;2.97;;;;;;;17.89;66.29;101358.13;5017793;28;20041;-77
2022/05/31 09:20:43;;;;;;;4.40;3.20;;;;;;;17.93;65.62;101348.91;5022162;28;20558;-77
2022/05/31 09:23:09;;;;;;;4.72;3.60;;;;;;;17.90;66.28;101344.63;5014801;28;20051;-76
2022/05/31 09:25:41;;;;;;;3.83;3.10;;;;;;;17.68;63.18;101350.59;4993908;28;20107;-76
2022/05/31 09:28:19;;;;;;;3.38;2.85;;;;;;;17.49;64.18;101354.50;5015118;28;20115;-76
2022/05/31 09:30:46;;;;;;;6.28;3.42;;;;;;;17.28;63.97;101353.25;5010710;28;20124;-76
2022/05/31 09:33:12;;;;;;;4.70;3.08;;;;;;;17.10;64.28;101345.44;5015921;28;20518;-75
2022/05/31 09:35:53;;;;;;;5.43;3.47;;;;;;;16.97;61.23;101343.56;5014976;28;20133;-75
2022/05/31 09:38:49;;;;;;;4.93;3.50;;;;;;;16.84;62.17;101345.31;5032568;28;20036;-77
2022/05/31 09:41:36;;;;;;;4.45;3.10;;;;;;;16.88;61.30;101344.16;5034487;28;20037;-77
2022/05/31 09:44:18;;;;;;;4.63;3.33;;;;;;;17.07;62.75;101340.31;5015184;28;20078;-76
2022/05/31 09:46:54;;;;;;;3.90;2.90;;;;;;;17.27;63.60;101340.84;5022154;28;20033;-75
2022/05/31 09:49:29;;;;;;;5.13;3.15;;;;;;;17.45;62.34;101338.75;5015824;28;20291;-75
2022/05/31 09:51:55;;;;;;;6.55;2.80;;;;;;;17.42;63.21;101339.81;5014233;28;20163;-76
2022/05/31 09:57:31;;;;;;;3.13;2.63;;;;;;;17.63;60.40;101328.59;5023663;28;20505;-77
2022/05/31 10:00:15;;;;;;;4.50;2.85;;;;;;;17.58;59.33;101325.38;5031795;28;20154;-75
2022/05/31 10:02:41;;;;;;;3.45;3.08;;;;;;;17.39;60.36;101337.34;5021785;28;20083;-76
2022/05/31 10:05:21;;;;;;;4.95;3.15;;;;;;;17.17;56.43;101333.38;5022979;28;20064;-76
2022/05/31 10:07:47;;;;;;;4.40;3.10;;;;;;;16.99;59.83;101332.75;5005341;28;20044;-75
2022/05/31 10:10:24;;;;;;;7.75;3.25;;;;;;;16.87;59.90;101326.41;5018911;28;20041;-75
2022/05/31 10:13:09;;;;;;;4.60;2.90;;;;;;;16.80;59.02;101328.63;5010860;28;20492;-75
2022/05/31 10:15:44;;;;;;;4.30;2.78;;;;;;;16.76;59.40;101331.56;5003448;28;20127;-75
2022/05/31 10:18:12;;;;;;;3.85;2.92;;;;;;;16.70;61.05;101328.34;5027675;28;20252;-75
2022/05/31 10:20:51;;;;;;;3.85;2.75;;;;;;;16.65;58.53;101321.56;5007194;28;20067;-75
2022/05/31 10:23:21;;;;;;;3.53;2.80;;;;;;;16.66;59.78;101329.50;5024866;28;20455;-75
2022/05/31 10:25:52;;;;;;;4.32;2.88;;;;;;;16.70;60.19;101319.47;4999412;28;20036;-75
2022/05/31 10:28:27;;;;;;;3.25;2.85;;;;;;;16.74;58.19;101322.78;5008512;28;20120;-75
2022/05/31 10:31:03;;;;;;;4.85;2.55;;;;;;;16.78;59.51;101313.63;5012122;28;20068;-75
2022/05/31 10:33:29;;;;;;;4.55;2.78;;;;;;;16.76;59.38;101313.72;4993461;28;20454;-75
2022/05/31 10:36:08;;;;;;;6.47;2.80;;;;;;;16.77;58.60;101317.25;5009950;28;20037;-75
2022/05/31 10:38:35;;;;;;;4.05;2.55;;;;;;;16.73;60.37;101315.72;5006697;28;20499;-75
2022/05/31 10:41:03;;;;;;;7.30;2.55;;;;;;;16.68;60.63;101316.88;5011586;28;20507;-75
2022/05/31 10:43:32;;;;;;;4.05;3.15;;;;;;;16.65;60.52;101319.75;5009235;28;20033;-75
2022/05/31 10:46:03;;;;;;;4.60;3.03;;;;;;;16.60;60.11;101311.16;5011668;28;20038;-75
2022/05/31 10:48:29;;;;;;;3.95;2.80;;;;;;;16.58;60.18;101312.22;5009279;28;20029;-75
2022/05/31 10:51:05;;;;;;;4.43;2.40;;;;;;;16.49;57.46;101311.84;4994055;28;20365;-74
2022/05/31 10:54:11;;;;;;;3.15;2.40;;;;;;;16.43;55.64;101309.56;5009312;28;20034;-75
2022/05/31 10:57:03;;;;;;;6.13;2.70;;;;;;;16.36;56.70;101309.09;5026914;28;20038;-75
2022/05/31 10:59:32;;;;;;;3.47;2.30;;;;;;;16.31;57.13;101310.31;5011194;28;20025;-72
2022/05/31 11:02:48;;;;;;;4.55;2.40;;;;;;;16.19;55.88;101303.94;5008824;28;20045;-71
2022/05/31 11:05:16;;;;;;;4.82;2.63;;;;;;;16.13;58.84;101297.19;4970263;28;20077;-72
2022/05/31 11:11:30;;;;;;;3.78;2.60;;;;;;;15.95;57.68;101301.84;5007102;28;20084;-72
2022/05/31 11:13:59;;;;;;;3.65;2.80;;;;;;;15.93;58.81;101307.28;5003534;28;20044;-71
2022/05/31 11:16:36;;;;;;;3.85;3.00;;;;;;;15.90;57.38;101307.41;5011989;28;20037;-72
2022/05/31 11:19:04;;;;;;;3.33;2.95;;;;;;;15.87;58.73;101307.59;5012421;28;20072;-72
2022/05/31 11:22:09;;;;;;;3.80;2.83;;;;;;;15.82;58.11;101305.22;5028065;28;22106;-72
2022/05/31 11:25:00;;;;;;;5.38;3.40;;;;;;;15.77;57.63;101307.31;5031469;28;20060;-71
2022/05/31 11:27:58;;;;;;;4.65;3.47;;;;;;;15.69;57.68;101314.91;5029985;28;20561;-72
2022/05/31 11:30:46;;;;;;;5.65;3.70;;;;;;;15.59;59.41;101310.09;5011361;28;20586;-72
2022/05/31 11:33:16;;;;;;;5.22;3.33;;;;;;;15.46;61.37;101306.44;5013429;28;20029;-71
2022/05/31 11:36:19;;;;;;;6.40;4.10;;;;;;;15.31;63.21;101305.56;5013925;28;20033;-72
2022/05/31 11:38:53;;;;;;;4.18;3.50;;;;;;;15.16;64.50;101318.81;5029542;28;20060;-72
2022/05/31 11:41:26;;;;;;;5.75;4.20;;;;;;;15.00;65.23;101310.84;5028111;28;20427;-72
2022/05/31 11:44:19;;;;;;;5.20;4.70;;;;;;;14.89;67.58;101316.78;5020265;28;20033;-72
2022/05/31 11:46:51;;;;;;;5.55;3.90;;;;;;;14.74;66.69;101320.28;5029456;28;20116;-72
2022/05/31 11:49:55;;;;;;;6.57;4.47;;;;;;;14.66;69.11;101318.03;5026840;28;20086;-72
2022/05/31 11:52:44;;;;;;;4.80;3.60;;;;;;;14.53;68.34;101316.03;5009485;28;20067;-73
2022/05/31 11:55:31;;;;;;;5.80;3.97;;;;;;;14.47;68.66;101316.38;5007723;28;20087;-73
2022/05/31 11:57:56;;;;;;;5.93;3.70;;;;;;;14.44;68.24;101316.53;5013863;28;20039;-73
2022/05/31 12:00:22;;;;;;;4.22;3.33;;;;;;;14.42;68.38;101317.59;5030345;28;20546;-72
2022/05/31 12:02:52;;;;;;;6.68;3.60;;;;;;;14.44;68.15;101315.69;5013164;28;20040;-73